Time;durP1;ratioP1;P1;durP2;ratioP2;P2;SDS_P1;SDS_P2;PMS_P1;PMS_P2;Temp;Humidity;BMP_temperature;BMP_pressure;BME280_temperature;BME280_humidity;BME280_pressure;Samples;Min_cycle;Max_cycle;Signal;HPM_P1;HPM_P2
2021/01/18 00:01:58;;;;;;;51.00;29.70;;;0.20;92.50;;;;;;5073241;28;20441;-78
2021/01/18 00:04:24;;;;;;;56.77;31.70;;;0.20;92.80;;;;;;5069799;28;20541;-79
2021/01/18 00:06:52;;;;;;;51.10;29.37;;;0.20;93.00;;;;;;5074990;28;20470;-77
2021/01/18 00:09:20;;;;;;;51.77;30.10;;;0.30;92.60;;;;;;5074268;28;20555;-77
2021/01/18 00:11:46;;;;;;;48.57;28.57;;;0.30;92.70;;;;;;5062913;28;20510;-77
2021/01/18 00:14:13;;;;;;;50.23;29.20;;;0.30;92.30;;;;;;5068076;28;20481;-78
2021/01/18 00:16:39;;;;;;;45.83;27.70;;;0.30;92.00;;;;;;5062663;28;20525;-78
2021/01/18 00:19:10;;;;;;;46.67;28.13;;;0.40;92.30;;;;;;5063415;28;20448;-77
2021/01/18 00:21:40;;;;;;;50.30;28.57;;;0.30;92.00;;;;;;5068319;28;20470;-75
2021/01/18 00:24:08;;;;;;;48.50;27.90;;;0.40;92.20;;;;;;5065984;28;20458;-74
2021/01/18 00:26:34;;;;;;;57.20;28.13;;;0.40;92.30;;;;;;5068630;28;20597;-74
2021/01/18 00:29:02;;;;;;;47.30;29.83;;;0.40;92.10;;;;;;5062464;28;20471;-76
2021/01/18 00:31:31;;;;;;;56.33;29.00;;;0.40;91.60;;;;;;5063916;28;20441;-74
2021/01/18 00:33:57;;;;;;;44.60;25.37;;;0.50;91.60;;;;;;5060357;28;21003;-77
2021/01/18 00:36:24;;;;;;;43.77;26.00;;;0.50;91.60;;;;;;5062484;28;20952;-75
2021/01/18 00:38:50;;;;;;;47.13;24.57;;;0.50;91.60;;;;;;5063610;28;22669;-75
2021/01/18 00:41:17;;;;;;;45.93;24.70;;;0.50;91.70;;;;;;5065749;28;20964;-76
2021/01/18 00:43:43;;;;;;;48.40;26.67;;;0.60;92.50;;;;;;5063959;28;20534;-76
2021/01/18 00:46:10;;;;;;;43.77;27.00;;;0.60;91.80;;;;;;5062722;28;20504;-75
2021/01/18 00:48:39;;;;;;;50.87;29.00;;;0.60;91.70;;;;;;5063005;28;20475;-80
2021/01/18 00:51:08;;;;;;;47.77;27.43;;;0.60;91.80;;;;;;5059950;28;20438;-77
2021/01/18 00:53:35;;;;;;;46.97;25.63;;;0.70;92.10;;;;;;5065385;28;20539;-75
2021/01/18 00:56:02;;;;;;;43.40;26.30;;;0.70;92.20;;;;;;5063314;28;20523;-75
2021/01/18 00:58:29;;;;;;;48.77;26.73;;;0.80;92.50;;;;;;5062802;28;20502;-75
2021/01/18 01:00:55;;;;;;;48.70;27.60;;;0.80;92.10;;;;;;5062325;28;20495;-75
2021/01/18 01:03:24;;;;;;;42.30;26.87;;;0.80;91.80;;;;;;5059557;28;20454;-75
2021/01/18 01:05:53;;;;;;;51.90;26.30;;;0.80;92.30;;;;;;5067178;28;20865;-74
2021/01/18 01:08:19;;;;;;;44.03;25.87;;;0.90;92.40;;;;;;5065320;28;20471;-74
2021/01/18 01:10:45;;;;;;;41.03;25.20;;;1.00;92.10;;;;;;5057022;28;20457;-74
2021/01/18 01:13:14;;;;;;;41.77;24.77;;;1.00;92.00;;;;;;5062336;28;20568;-74
2021/01/18 01:15:42;;;;;;;46.60;25.00;;;1.00;91.90;;;;;;5066973;28;20458;-75
2021/01/18 01:18:09;;;;;;;45.60;26.10;;;1.10;91.90;;;;;;5066827;28;20458;-77
2021/01/18 01:20:38;;;;;;;46.87;26.37;;;1.10;92.20;;;;;;5067512;28;20562;-75
2021/01/18 01:23:04;;;;;;;39.50;22.83;;;1.20;92.20;;;;;;5064039;28;20450;-78
2021/01/18 01:25:31;;;;;;;36.60;23.40;;;1.20;92.80;;;;;;5062161;28;20460;-75
2021/01/18 01:28:00;;;;;;;36.60;23.83;;;1.20;92.90;;;;;;5064770;28;20468;-74
2021/01/18 01:30:27;;;;;;;37.00;21.57;;;1.20;93.30;;;;;;5056132;28;20512;-74
2021/01/18 01:32:55;;;;;;;41.67;23.53;;;1.30;94.30;;;;;;5057831;28;20454;-73
2021/01/18 01:35:24;;;;;;;36.80;21.60;;;1.30;94.80;;;;;;5068646;28;20451;-73
2021/01/18 01:37:51;;;;;;;36.03;22.37;;;1.40;95.00;;;;;;5061853;28;20482;-75
2021/01/18 01:40:18;;;;;;;44.87;22.60;;;1.40;94.30;;;;;;5060776;28;20760;-75
2021/01/18 01:42:45;;;;;;;38.23;22.13;;;1.40;94.30;;;;;;5059949;28;20462;-74
2021/01/18 01:45:14;;;;;;;34.93;21.80;;;1.50;94.30;;;;;;5059923;28;20471;-74
2021/01/18 01:47:43;;;;;;;35.00;21.33;;;1.50;94.10;;;;;;5057791;28;20892;-75
2021/01/18 01:50:13;;;;;;;39.33;22.17;;;1.60;94.50;;;;;;5061709;28;20444;-76
2021/01/18 01:52:43;;;;;;;33.67;19.00;;;1.60;93.90;;;;;;5058038;28;20520;-74
2021/01/18 01:55:16;;;;;;;35.90;20.90;;;1.60;94.60;;;;;;5060087;28;20513;-75
2021/01/18 01:57:44;;;;;;;35.33;19.27;;;1.60;95.10;;;;;;5061052;28;20535;-76
2021/01/18 02:00:12;;;;;;;33.10;19.30;;;1.60;95.60;;;;;;5058964;28;20519;-75
2021/01/18 02:02:38;;;;;;;30.70;18.93;;;1.60;96.10;;;;;;5061438;28;20461;-76
2021/01/18 02:05:13;;;;;;;33.07;19.67;;;1.60;97.00;;;;;;5063868;28;20979;-78
2021/01/18 02:07:41;;;;;;;33.33;19.30;;;1.60;97.40;;;;;;5057082;28;20569;-74
2021/01/18 02:10:08;;;;;;;31.53;20.23;;;1.60;97.20;;;;;;5057922;28;20569;-77
2021/01/18 02:12:35;;;;;;;26.97;18.37;;;1.70;97.10;;;;;;5057508;28;20623;-75
2021/01/18 02:15:17;;;;;;;31.40;18.93;;;1.70;97.60;;;;;;5062399;28;20633;-75
2021/01/18 02:17:54;;;;;;;27.27;18.70;;;1.70;97.40;;;;;;5057391;28;20448;-75
2021/01/18 02:21:12;;;;;;;31.93;18.63;;;1.70;97.10;;;;;;5057721;28;20511;-74
2021/01/18 02:24:15;;;;;;;26.43;17.30;;;1.70;97.10;;;;;;5017473;28;20454;-77
2021/01/18 02:26:55;;;;;;;30.87;19.10;;;1.70;97.20;;;;;;5059357;28;20574;-75
2021/01/18 02:29:33;;;;;;;29.33;19.00;;;1.70;97.40;;;;;;5061766;28;20452;-75
2021/01/18 02:32:43;;;;;;;25.80;17.80;;;1.80;97.10;;;;;;5064759;28;20449;-77
2021/01/18 02:35:40;;;;;;;30.53;17.27;;;1.80;97.20;;;;;;5058582;28;20569;-74
2021/01/18 02:38:14;;;;;;;27.90;17.23;;;1.80;98.00;;;;;;5058006;28;20456;-76
2021/01/18 02:40:53;;;;;;;30.60;18.87;;;1.70;98.50;;;;;;5060292;28;20445;-76
2021/01/18 02:43:25;;;;;;;26.50;17.50;;;1.70;99.50;;;;;;5058604;28;20450;-75
2021/01/18 02:45:52;;;;;;;29.47;18.77;;;1.70;99.90;;;;;;5066630;28;20445;-75
2021/01/18 02:48:20;;;;;;;25.70;17.70;;;1.70;99.90;;;;;;5059897;28;20466;-77
2021/01/18 02:50:48;;;;;;;24.60;16.93;;;1.70;99.90;;;;;;5060516;28;20816;-75
2021/01/18 02:53:16;;;;;;;28.43;18.20;;;1.60;99.90;;;;;;5054630;28;20862;-75
2021/01/18 02:55:42;;;;;;;30.57;17.83;;;1.60;99.90;;;;;;5064667;28;20525;-75
2021/01/18 02:58:12;;;;;;;25.90;18.60;;;1.60;99.90;;;;;;5066876;28;20455;-76
2021/01/18 03:00:45;;;;;;;28.27;17.83;;;1.50;99.90;;;;;;5067681;28;20472;-76
2021/01/18 03:03:20;;;;;;;28.93;17.60;;;1.40;99.90;;;;;;5070155;28;20456;-74
2021/01/18 03:05:57;;;;;;;24.60;17.83;;;1.40;99.90;;;;;;5068660;28;20442;-74
2021/01/18 03:08:29;;;;;;;26.87;17.17;;;1.30;99.90;;;;;;5066638;28;20552;-74
2021/01/18 03:11:02;;;;;;;26.47;18.00;;;1.30;99.90;;;;;;5068816;28;20452;-74
2021/01/18 03:13:32;;;;;;;25.67;18.07;;;1.20;99.90;;;;;;5062158;28;20531;-76
2021/01/18 03:16:05;;;;;;;28.50;18.97;;;1.20;99.90;;;;;;5061180;28;20486;-74
2021/01/18 03:18:35;;;;;;;31.43;18.00;;;1.20;99.90;;;;;;5061179;28;20450;-74
2021/01/18 03:21:02;;;;;;;29.57;17.80;;;1.20;99.90;;;;;;5060902;28;20459;-75
2021/01/18 03:23:30;;;;;;;31.33;18.80;;;1.30;99.90;;;;;;5064000;28;21009;-74
2021/01/18 03:25:57;;;;;;;26.03;17.50;;;1.20;99.90;;;;;;5065565;28;20484;-75
2021/01/18 03:28:24;;;;;;;27.80;17.80;;;1.20;99.90;;;;;;5066202;28;20459;-75
2021/01/18 03:30:51;;;;;;;31.17;19.53;;;1.20;99.90;;;;;;5064239;28;20474;-78
2021/01/18 03:33:24;;;;;;;29.83;18.73;;;1.40;99.90;;;;;;5062502;28;20437;-78
2021/01/18 03:35:50;;;;;;;30.07;19.03;;;1.20;99.90;;;;;;5065246;28;20536;-75
2021/01/18 03:38:17;;;;;;;27.20;16.90;;;1.30;99.90;;;;;;5066459;28;20470;-75
2021/01/18 03:40:44;;;;;;;27.03;17.37;;;1.30;99.90;;;;;;5063646;28;20460;-76
2021/01/18 03:43:11;;;;;;;27.17;18.50;;;1.30;99.90;;;;;;5063251;28;20905;-75
2021/01/18 03:45:40;;;;;;;30.73;18.93;;;1.30;99.90;;;;;;5063333;28;20453;-75
2021/01/18 03:48:09;;;;;;;31.03;17.90;;;1.30;99.90;;;;;;5062546;28;20520;-75
2021/01/18 03:50:35;;;;;;;32.20;19.37;;;1.30;99.90;;;;;;5066027;28;20456;-75
2021/01/18 03:53:02;;;;;;;29.80;18.40;;;1.40;99.90;;;;;;5062080;28;20479;-79
2021/01/18 03:55:29;;;;;;;31.20;17.37;;;1.40;99.90;;;;;;5065641;28;20484;-75
2021/01/18 03:57:56;;;;;;;27.30;18.37;;;1.40;99.90;;;;;;5062666;28;20543;-78
2021/01/18 04:00:25;;;;;;;31.13;19.10;;;1.40;99.90;;;;;;5061848;28;20450;-77
2021/01/18 04:02:52;;;;;;;26.30;17.10;;;1.40;99.90;;;;;;5060647;28;20453;-77
2021/01/18 04:05:20;;;;;;;27.70;18.50;;;1.40;99.90;;;;;;5062158;28;20446;-75
2021/01/18 04:07:47;;;;;;;24.90;17.00;;;1.40;99.90;;;;;;5064015;28;20974;-76
2021/01/18 04:10:16;;;;;;;29.10;18.20;;;1.40;99.90;;;;;;5068173;28;20453;-75
2021/01/18 04:12:44;;;;;;;29.77;17.80;;;1.50;99.90;;;;;;5064824;28;20462;-76
2021/01/18 04:15:13;;;;;;;21.50;15.70;;;1.50;99.90;;;;;;5061441;28;20456;-78
2021/01/18 04:17:40;;;;;;;26.97;18.30;;;1.50;99.90;;;;;;5061810;28;20827;-75
2021/01/18 04:20:08;;;;;;;25.60;17.20;;;1.40;99.90;;;;;;5068528;28;20450;-75
2021/01/18 04:22:35;;;;;;;27.20;16.43;;;1.40;99.90;;;;;;5069267;28;20498;-75
2021/01/18 04:25:01;;;;;;;25.50;17.70;;;1.40;99.90;;;;;;5075023;28;20496;-76
2021/01/18 04:27:27;;;;;;;27.50;18.40;;;1.40;99.90;;;;;;5073256;28;20490;-75
2021/01/18 04:29:54;;;;;;;26.10;18.03;;;1.40;99.90;;;;;;5061259;28;20460;-76
2021/01/18 04:32:21;;;;;;;26.90;18.43;;;1.40;99.90;;;;;;5062776;28;20812;-76
2021/01/18 04:34:47;;;;;;;28.90;17.60;;;1.40;99.90;;;;;;5060877;28;20487;-76
2021/01/18 04:37:14;;;;;;;25.97;18.13;;;1.40;99.90;;;;;;5067837;28;20442;-75
2021/01/18 04:39:40;;;;;;;28.10;17.60;;;1.40;99.90;;;;;;5059876;28;20478;-77
2021/01/18 04:42:07;;;;;;;25.27;16.70;;;1.30;99.90;;;;;;5063690;28;20547;-76
2021/01/18 04:44:34;;;;;;;30.97;18.60;;;1.40;99.90;;;;;;5069157;28;20454;-74
2021/01/18 04:47:02;;;;;;;26.60;18.70;;;1.40;99.90;;;;;;5061718;28;20606;-75
2021/01/18 04:49:30;;;;;;;29.70;18.80;;;1.40;99.90;;;;;;5061718;28;20480;-75
2021/01/18 04:51:58;;;;;;;34.33;22.00;;;1.50;99.90;;;;;;5064075;28;22461;-75
2021/01/18 04:54:27;;;;;;;34.90;23.00;;;1.50;99.90;;;;;;5063419;28;20449;-75
2021/01/18 04:57:14;;;;;;;32.83;21.20;;;1.50;99.90;;;;;;5063802;28;20487;-75
2021/01/18 04:59:45;;;;;;;36.23;21.00;;;1.50;99.90;;;;;;5059563;28;20537;-75
2021/01/18 05:02:16;;;;;;;34.50;21.93;;;1.60;99.90;;;;;;5066735;28;20440;-75
2021/01/18 05:04:49;;;;;;;38.57;21.90;;;1.70;99.90;;;;;;5058664;28;20969;-76
2021/01/18 05:07:48;;;;;;;34.70;21.70;;;1.60;99.90;;;;;;5066001;28;20981;-74
2021/01/18 05:10:25;;;;;;;31.00;20.63;;;1.70;99.90;;;;;;5057608;28;20445;-75
2021/01/18 05:12:56;;;;;;;39.20;22.03;;;1.70;99.90;;;;;;5060864;28;20545;-75
2021/01/18 05:15:24;;;;;;;36.00;20.37;;;1.70;99.90;;;;;;5058369;28;20488;-75
2021/01/18 05:18:00;;;;;;;36.77;22.33;;;1.70;99.90;;;;;;5061394;28;20902;-76
2021/01/18 05:20:27;;;;;;;36.37;22.33;;;1.80;99.90;;;;;;5059526;28;20486;-80
2021/01/18 05:22:55;;;;;;;30.37;20.10;;;1.80;99.90;;;;;;5058622;28;20448;-75
2021/01/18 05:25:22;;;;;;;36.10;22.53;;;1.80;99.90;;;;;;5053222;28;20452;-75
2021/01/18 05:28:04;;;;;;;30.97;21.40;;;1.80;99.90;;;;;;5062541;28;20475;-75
2021/01/18 05:30:32;;;;;;;34.50;21.43;;;1.80;99.90;;;;;;5055893;28;20942;-76
2021/01/18 05:33:07;;;;;;;42.33;22.60;;;1.80;99.90;;;;;;5065094;28;20450;-75
2021/01/18 05:35:36;;;;;;;37.43;23.00;;;1.80;99.90;;;;;;5061517;28;20451;-75
2021/01/18 05:38:10;;;;;;;37.10;22.17;;;1.80;99.90;;;;;;5063439;28;20528;-76
2021/01/18 05:40:39;;;;;;;34.50;23.63;;;1.80;99.90;;;;;;5063871;28;20449;-75
2021/01/18 05:43:06;;;;;;;35.97;22.23;;;1.80;99.90;;;;;;5068305;28;20450;-76
2021/01/18 05:45:35;;;;;;;38.60;24.03;;;1.80;99.90;;;;;;5059743;28;21094;-75
2021/01/18 05:48:03;;;;;;;39.00;23.33;;;1.80;99.90;;;;;;5063378;28;20830;-77
2021/01/18 05:50:33;;;;;;;35.43;23.47;;;1.80;99.90;;;;;;5060242;28;20451;-77
2021/01/18 05:53:02;;;;;;;44.00;24.57;;;1.80;99.90;;;;;;5062467;28;20965;-76
2021/01/18 05:55:29;;;;;;;42.20;23.00;;;1.80;99.90;;;;;;5057118;28;20476;-75
2021/01/18 05:57:57;;;;;;;42.87;23.10;;;1.80;99.90;;;;;;5066291;28;20987;-76
2021/01/18 06:00:29;;;;;;;37.30;24.00;;;1.80;99.90;;;;;;5063211;28;20471;-76
2021/01/18 06:02:56;;;;;;;39.07;24.70;;;1.80;99.90;;;;;;5059830;28;20542;-75
2021/01/18 06:05:30;;;;;;;35.20;20.80;;;1.80;99.90;;;;;;5060762;28;20475;-77
2021/01/18 06:08:14;;;;;;;36.43;21.73;;;1.80;99.90;;;;;;5061567;28;21101;-75
2021/01/18 06:10:41;;;;;;;32.60;21.33;;;1.80;99.90;;;;;;5058728;28;21337;-76
2021/01/18 06:13:26;;;;;;;36.77;23.37;;;1.80;99.90;;;;;;5060313;28;20507;-76
2021/01/18 06:16:11;;;;;;;32.30;21.20;;;1.80;99.90;;;;;;5063640;28;20452;-75
2021/01/18 06:18:39;;;;;;;35.90;20.90;;;1.80;99.90;;;;;;5060945;28;20485;-75
2021/01/18 06:21:09;;;;;;;33.47;21.50;;;1.90;99.90;;;;;;5061765;28;20965;-76
2021/01/18 06:23:37;;;;;;;30.83;21.30;;;1.90;99.90;;;;;;5058798;28;20920;-75
2021/01/18 06:26:03;;;;;;;34.13;21.77;;;1.90;99.90;;;;;;5061997;28;20448;-75
2021/01/18 06:28:31;;;;;;;34.43;20.80;;;1.90;99.90;;;;;;5058503;28;20493;-75
2021/01/18 06:30:59;;;;;;;34.60;21.80;;;1.90;99.90;;;;;;5060641;28;20442;-74
2021/01/18 06:33:40;;;;;;;35.63;22.70;;;1.90;99.90;;;;;;5062292;28;20955;-76
2021/01/18 06:36:14;;;;;;;34.83;21.70;;;1.90;99.90;;;;;;5066564;28;20461;-75
2021/01/18 06:38:42;;;;;;;32.67;21.97;;;1.90;99.90;;;;;;5072839;28;20465;-75
2021/01/18 06:41:09;;;;;;;29.67;19.83;;;1.80;99.90;;;;;;5066883;28;20447;-75
2021/01/18 06:43:36;;;;;;;37.27;20.37;;;1.80;99.90;;;;;;5061330;28;20578;-75
2021/01/18 06:46:17;;;;;;;32.90;20.93;;;1.70;99.90;;;;;;5064667;28;20545;-75
2021/01/18 06:48:45;;;;;;;33.40;21.23;;;1.70;99.90;;;;;;5058942;28;20490;-77
2021/01/18 06:51:14;;;;;;;34.37;22.23;;;1.60;99.90;;;;;;5064311;28;20485;-76
2021/01/18 06:53:43;;;;;;;34.53;21.10;;;1.60;99.90;;;;;;5067914;28;20450;-75
2021/01/18 06:56:46;;;;;;;37.03;23.30;;;1.50;99.90;;;;;;5063519;28;20471;-79
2021/01/18 06:59:33;;;;;;;33.80;21.03;;;1.50;99.90;;;;;;5065608;28;20457;-78
2021/01/18 07:02:16;;;;;;;34.10;21.40;;;1.50;99.90;;;;;;5061870;28;20981;-75
2021/01/18 07:04:46;;;;;;;32.40;20.73;;;1.60;99.90;;;;;;5062928;28;20532;-75
2021/01/18 07:07:23;;;;;;;31.00;20.60;;;1.60;99.90;;;;;;5062204;28;20543;-76
2021/01/18 07:09:56;;;;;;;33.73;22.07;;;1.60;99.90;;;;;;5066328;28;20463;-74
2021/01/18 07:12:25;;;;;;;34.23;20.97;;;1.60;99.90;;;;;;5064935;28;20564;-76
2021/01/18 07:14:59;;;;;;;33.40;20.37;;;1.70;98.90;;;;;;5066907;28;20532;-76
2021/01/18 07:17:50;;;;;;;31.00;19.23;;;1.70;97.80;;;;;;5067781;28;20452;-75
2021/01/18 07:20:22;;;;;;;29.80;20.03;;;1.70;96.40;;;;;;5068590;28;20445;-78
2021/01/18 07:23:05;;;;;;;33.50;21.63;;;1.70;95.90;;;;;;5066994;28;20460;-75
2021/01/18 07:25:36;;;;;;;34.77;21.70;;;1.80;95.10;;;;;;5070888;28;20497;-76
2021/01/18 07:28:04;;;;;;;29.60;18.60;;;1.80;95.10;;;;;;5069073;28;21034;-76
2021/01/18 07:30:32;;;;;;;26.50;18.50;;;1.90;93.90;;;;;;5065684;28;20461;-76
2021/01/18 07:33:07;;;;;;;26.73;18.83;;;1.90;93.70;;;;;;5065794;28;20457;-76
2021/01/18 07:35:35;;;;;;;24.47;16.67;;;1.90;93.80;;;;;;5067028;28;20466;-78
2021/01/18 07:38:15;;;;;;;25.97;16.97;;;1.90;93.30;;;;;;5060566;28;20536;-78
2021/01/18 07:41:03;;;;;;;29.13;17.33;;;2.00;92.80;;;;;;5065897;28;20449;-75
2021/01/18 07:43:33;;;;;;;35.83;19.00;;;2.00;93.00;;;;;;5061879;28;20450;-76
2021/01/18 07:46:36;;;;;;;23.70;16.63;;;2.00;92.50;;;;;;5068006;28;20526;-76
2021/01/18 07:49:33;;;;;;;23.93;17.50;;;2.10;93.00;;;;;;5063270;28;20456;-75
2021/01/18 07:52:27;;;;;;;25.07;18.00;;;2.10;92.50;;;;;;5059202;28;20447;-77
2021/01/18 07:54:58;;;;;;;24.50;17.13;;;2.10;92.40;;;;;;5060069;28;20910;-77
2021/01/18 07:57:38;;;;;;;24.50;16.70;;;2.10;92.60;;;;;;5054910;28;20461;-77
2021/01/18 08:00:33;;;;;;;26.58;21.90;;;2.10;92.00;;;;;;5073563;28;20510;-86
2021/01/18 08:03:29;;;;;;;22.80;17.27;;;2.10;92.20;;;;;;5075857;28;20209;-86
2021/01/18 08:06:19;;;;;;;26.13;16.80;;;2.20;91.90;;;;;;5076943;28;20454;-84
2021/01/18 08:08:47;;;;;;;22.70;15.30;;;2.20;91.60;;;;;;5074829;28;20502;-84
2021/01/18 08:11:16;;;;;;;23.03;15.93;;;2.20;91.70;;;;;;5074996;28;20456;-84
2021/01/18 08:13:53;;;;;;;20.90;16.30;;;2.20;91.10;;;;;;5084632;28;20462;-84
2021/01/18 08:16:30;;;;;;;21.90;15.47;;;2.20;90.70;;;;;;5079095;28;20442;-85
2021/01/18 08:19:07;;;;;;;22.77;15.33;;;2.20;91.20;;;;;;5084773;28;20459;-83
2021/01/18 08:21:46;;;;;;;23.27;15.90;;;2.20;91.50;;;;;;5083486;28;20623;-83
2021/01/18 08:24:15;;;;;;;21.50;16.50;;;2.20;91.20;;;;;;5086631;28;20446;-83
2021/01/18 08:26:55;;;;;;;21.20;16.03;;;2.30;91.70;;;;;;5084381;28;20433;-85
2021/01/18 08:29:46;;;;;;;23.00;14.83;;;2.20;91.10;;;;;;5095057;28;20470;-82
2021/01/18 08:32:41;;;;;;;18.40;13.80;;;2.30;91.00;;;;;;5081369;28;20460;-83
2021/01/18 08:35:22;;;;;;;18.33;13.50;;;2.30;90.60;;;;;;5085326;28;20451;-85
2021/01/18 08:37:53;;;;;;;20.30;14.57;;;2.40;90.60;;;;;;5084242;28;20456;-83
2021/01/18 08:40:21;;;;;;;21.90;14.67;;;2.30;90.50;;;;;;5079538;28;20453;-82
2021/01/18 08:42:54;;;;;;;17.67;13.73;;;2.40;90.60;;;;;;5078006;28;20698;-82
2021/01/18 08:45:26;;;;;;;17.83;13.83;;;2.30;90.50;;;;;;5075061;28;20455;-83
2021/01/18 08:47:57;;;;;;;17.90;14.03;;;2.40;90.90;;;;;;5070274;28;20476;-83
2021/01/18 08:50:29;;;;;;;21.77;17.35;;;2.60;91.10;;;;;;5068953;28;20459;-80
2021/01/18 08:53:01;;;;;;;22.23;15.23;;;2.50;90.60;;;;;;5068193;28;20251;-82
2021/01/18 08:55:49;;;;;;;19.93;14.90;;;2.50;90.40;;;;;;5073536;28;20897;-81
2021/01/18 08:58:43;;;;;;;25.97;15.37;;;2.50;90.20;;;;;;5067075;28;20462;-82
2021/01/18 09:01:14;;;;;;;22.83;15.43;;;2.40;91.00;;;;;;5073660;28;20507;-82
2021/01/18 09:03:41;;;;;;;22.53;15.70;;;2.30;91.40;;;;;;5073639;28;20552;-81
2021/01/18 09:06:09;;;;;;;20.83;15.47;;;2.30;91.90;;;;;;5070367;28;20491;-81
2021/01/18 09:08:40;;;;;;;19.70;14.63;;;2.40;91.60;;;;;;5059788;28;20465;-80
2021/01/18 09:11:09;;;;;;;18.60;14.93;;;2.40;91.40;;;;;;5063743;28;20457;-81
2021/01/18 09:13:40;;;;;;;18.77;13.50;;;2.50;91.10;;;;;;5068271;28;20489;-80
2021/01/18 09:16:08;;;;;;;19.83;14.50;;;2.50;90.90;;;;;;5067453;28;20465;-80
2021/01/18 09:18:37;;;;;;;17.27;13.60;;;2.50;90.60;;;;;;5059994;28;20498;-80
2021/01/18 09:21:09;;;;;;;17.33;14.23;;;2.50;90.70;;;;;;5070627;28;20487;-82
2021/01/18 09:23:37;;;;;;;19.80;14.53;;;2.50;90.90;;;;;;5066956;28;20441;-86
2021/01/18 09:26:07;;;;;;;19.97;14.10;;;2.60;90.80;;;;;;5071549;28;20489;-86
2021/01/18 09:28:35;;;;;;;17.17;12.60;;;2.60;89.80;;;;;;5070541;28;20466;-87
2021/01/18 09:31:12;;;;;;;17.00;12.97;;;2.60;88.60;;;;;;5052858;28;20468;-88
2021/01/18 09:33:41;;;;;;;18.77;13.17;;;2.60;88.60;;;;;;5064994;28;20460;-86
2021/01/18 09:36:14;;;;;;;15.20;12.60;;;2.70;89.10;;;;;;5066506;28;20874;-87
2021/01/18 09:38:43;;;;;;;15.60;13.17;;;2.80;87.80;;;;;;5066337;28;20480;-87
2021/01/18 09:41:12;;;;;;;16.43;13.50;;;2.90;87.20;;;;;;5067740;28;20452;-87
2021/01/18 09:43:41;;;;;;;16.80;12.40;;;3.10;86.90;;;;;;5063938;28;20452;-87
2021/01/18 09:46:08;;;;;;;17.57;13.00;;;3.20;84.60;;;;;;5074861;28;20803;-88
2021/01/18 09:48:37;;;;;;;15.80;12.93;;;3.20;83.80;;;;;;5074280;28;20479;-86
2021/01/18 09:51:10;;;;;;;21.03;12.10;;;3.30;82.90;;;;;;5070484;28;20464;-87
2021/01/18 09:53:38;;;;;;;14.00;11.10;;;3.30;82.40;;;;;;5070242;28;20479;-87
2021/01/18 09:56:09;;;;;;;14.50;11.07;;;3.30;81.80;;;;;;5071367;28;20462;-88
2021/01/18 09:58:38;;;;;;;16.92;13.25;;;3.10;81.90;;;;;;5077612;28;20526;-85
2021/01/18 10:01:11;;;;;;;15.10;13.50;;;3.20;82.60;;;;;;5073267;28;20442;-88
2021/01/18 10:03:52;;;;;;;14.03;12.13;;;3.10;82.00;;;;;;5075898;28;20290;-88
2021/01/18 10:06:25;;;;;;;13.50;10.27;;;3.10;81.30;;;;;;5069965;28;20497;-89
2021/01/18 10:08:56;;;;;;;11.20;10.00;;;3.30;80.80;;;;;;5071670;28;20468;-89
2021/01/18 10:11:40;;;;;;;12.50;9.50;;;3.20;79.90;;;;;;5073978;28;20458;-88
2021/01/18 10:14:19;;;;;;;13.27;10.17;;;3.20;80.00;;;;;;5064490;28;20475;-90
2021/01/18 10:17:00;;;;;;;15.70;11.00;;;3.30;80.20;;;;;;5067101;28;20547;-88
2021/01/18 10:19:27;;;;;;;12.73;11.20;;;3.30;80.00;;;;;;5068656;28;20498;-86
2021/01/18 10:21:57;;;;;;;12.47;10.73;;;3.30;79.90;;;;;;5070623;28;20484;-86
2021/01/18 10:24:29;;;;;;;14.70;11.67;;;3.30;80.70;;;;;;5071006;28;20484;-86
2021/01/18 10:27:04;;;;;;;13.00;10.67;;;3.30;79.90;;;;;;5074009;28;20456;-87
2021/01/18 10:29:33;;;;;;;14.40;10.60;;;3.40;79.60;;;;;;5081514;28;20473;-88
2021/01/18 10:32:03;;;;;;;12.93;9.90;;;3.50;79.50;;;;;;5071532;28;20464;-86
2021/01/18 10:34:31;;;;;;;12.13;9.10;;;3.50;79.20;;;;;;5072210;28;20472;-86
2021/01/18 10:37:12;;;;;;;11.70;9.50;;;3.50;78.80;;;;;;5076924;28;20447;-87
2021/01/18 10:39:41;;;;;;;13.23;10.00;;;3.40;79.10;;;;;;5086106;28;20444;-86
2021/01/18 10:42:12;;;;;;;13.20;10.40;;;3.50;78.90;;;;;;5083908;28;20494;-86
2021/01/18 10:44:49;;;;;;;12.77;9.97;;;3.60;78.80;;;;;;5079125;28;20455;-86
2021/01/18 10:47:18;;;;;;;13.50;10.17;;;3.70;78.60;;;;;;5072907;28;21267;-87
2021/01/18 10:49:59;;;;;;;12.23;10.07;;;3.80;78.40;;;;;;5075945;28;20464;-88
2021/01/18 10:52:37;;;;;;;12.93;9.63;;;4.00;77.70;;;;;;5068774;28;20464;-89
2021/01/18 10:55:08;;;;;;;11.33;10.13;;;3.90;77.20;;;;;;5063830;28;20452;-89
2021/01/18 10:57:42;;;;;;;17.60;9.63;;;3.90;77.20;;;;;;5065120;28;20451;-88
2021/01/18 11:00:22;;;;;;;11.20;9.60;;;3.90;76.70;;;;;;5066413;28;21131;-87
2021/01/18 11:02:57;;;;;;;11.30;9.53;;;4.00;76.90;;;;;;5070895;28;20490;-88
2021/01/18 11:05:32;;;;;;;14.70;10.93;;;3.80;76.50;;;;;;5069498;28;20539;-85
2021/01/18 11:08:04;;;;;;;13.50;11.13;;;3.80;76.90;;;;;;5062238;28;20558;-86
2021/01/18 11:10:32;;;;;;;13.75;12.25;;;3.90;76.90;;;;;;5069681;28;20447;-83
2021/01/18 11:13:05;;;;;;;14.33;11.73;;;3.90;77.20;;;;;;5072344;28;20228;-85
2021/01/18 11:15:34;;;;;;;13.17;11.03;;;4.00;76.40;;;;;;5069244;28;20451;-83
2021/01/18 11:18:04;;;;;;;13.37;11.43;;;4.20;76.30;;;;;;5072730;28;20460;-84
2021/01/18 11:20:35;;;;;;;15.77;11.60;;;4.00;75.90;;;;;;5067840;28;20460;-83
2021/01/18 11:23:09;;;;;;;19.03;11.27;;;3.90;75.90;;;;;;5079772;28;20476;-83
2021/01/18 11:25:36;;;;;;;12.83;11.10;;;3.80;76.10;;;;;;5080479;28;20447;-84
2021/01/18 11:28:10;;;;;;;17.43;11.80;;;3.90;76.00;;;;;;5073809;28;20752;-83
2021/01/18 11:30:38;;;;;;;15.87;11.63;;;3.80;76.00;;;;;;5082213;28;20464;-82
2021/01/18 11:33:05;;;;;;;14.00;11.87;;;3.80;76.10;;;;;;5082083;28;20455;-83
2021/01/18 11:35:32;;;;;;;16.53;11.30;;;3.60;75.90;;;;;;5079848;28;20519;-83
2021/01/18 11:37:58;;;;;;;15.50;11.50;;;3.60;76.20;;;;;;5073072;28;20459;-84
2021/01/18 11:40:26;;;;;;;15.20;11.20;;;3.60;76.10;;;;;;5077214;28;20474;-85
2021/01/18 11:42:56;;;;;;;17.03;12.27;;;3.60;75.80;;;;;;5086088;28;20454;-84
2021/01/18 11:45:25;;;;;;;16.60;11.67;;;3.50;75.80;;;;;;5083847;28;20516;-82
2021/01/18 11:47:53;;;;;;;16.50;11.50;;;3.70;75.90;;;;;;5082067;28;20469;-83
2021/01/18 11:50:20;;;;;;;15.10;11.00;;;3.70;75.70;;;;;;5072832;28;20528;-85
2021/01/18 11:52:48;;;;;;;19.20;10.90;;;3.70;75.70;;;;;;5083149;28;20451;-85
2021/01/18 11:55:17;;;;;;;13.90;10.00;;;3.80;75.50;;;;;;5072204;28;20541;-81
2021/01/18 11:57:45;;;;;;;12.67;11.30;;;3.80;75.10;;;;;;5075736;28;20443;-83
2021/01/18 12:00:14;;;;;;;15.50;11.17;;;3.90;75.10;;;;;;5082526;28;20501;-81
2021/01/18 12:02:41;;;;;;;15.20;11.47;;;4.20;74.90;;;;;;5078246;28;20476;-81
2021/01/18 12:05:09;;;;;;;17.43;12.10;;;4.10;74.70;;;;;;5067857;28;20449;-82
2021/01/18 12:07:36;;;;;;;16.13;11.87;;;4.00;74.40;;;;;;5075112;28;20463;-82
2021/01/18 12:10:04;;;;;;;14.70;11.70;;;3.90;74.60;;;;;;5074019;28;20459;-83
2021/01/18 12:12:31;;;;;;;16.40;11.60;;;3.70;74.60;;;;;;5080160;28;20475;-82
2021/01/18 12:15:08;;;;;;;17.33;13.50;;;3.70;75.00;;;;;;5074986;28;20471;-83
2021/01/18 12:17:41;;;;;;;15.77;11.93;;;3.80;75.20;;;;;;5082714;28;20465;-80
2021/01/18 12:20:12;;;;;;;17.37;12.20;;;3.90;74.60;;;;;;5077010;28;20881;-87
2021/01/18 12:22:39;;;;;;;15.03;11.40;;;3.60;74.70;;;;;;5074598;28;20525;-85
2021/01/18 12:25:12;;;;;;;17.83;12.67;;;3.50;75.10;;;;;;5078847;28;20447;-84
2021/01/18 12:27:41;;;;;;;15.37;12.13;;;3.60;75.00;;;;;;5070398;28;20466;-88
2021/01/18 12:30:10;;;;;;;15.97;12.23;;;3.50;75.00;;;;;;5085962;28;20470;-84
2021/01/18 12:32:37;;;;;;;16.80;12.60;;;3.40;75.20;;;;;;5076102;28;20495;-85
2021/01/18 12:35:05;;;;;;;16.97;11.77;;;3.40;75.00;;;;;;5077945;28;20524;-81
2021/01/18 12:37:32;;;;;;;18.40;11.33;;;3.30;75.20;;;;;;5067964;28;20990;-84
2021/01/18 12:39:59;;;;;;;16.53;12.40;;;3.20;75.30;;;;;;5077534;28;20978;-83
2021/01/18 12:42:28;;;;;;;15.80;12.17;;;3.20;75.60;;;;;;5066808;28;20451;-80
2021/01/18 12:44:55;;;;;;;15.30;10.77;;;3.30;75.80;;;;;;5067238;28;20487;-83
2021/01/18 12:47:26;;;;;;;19.17;12.30;;;3.30;75.50;;;;;;5068207;28;20488;-79
2021/01/18 12:49:53;;;;;;;16.93;10.70;;;3.30;75.50;;;;;;5067898;28;21301;-79
2021/01/18 12:52:23;;;;;;;16.63;11.53;;;3.30;75.30;;;;;;5070409;28;20451;-79
2021/01/18 12:54:50;;;;;;;14.53;10.97;;;3.20;75.50;;;;;;5070607;28;21000;-79
2021/01/18 12:57:16;;;;;;;12.80;10.43;;;3.30;75.40;;;;;;5073568;28;20464;-82
2021/01/18 12:59:43;;;;;;;12.97;10.90;;;3.20;75.00;;;;;;5077706;28;20616;-83
2021/01/18 13:02:11;;;;;;;15.53;11.50;;;3.30;75.10;;;;;;5077930;28;20461;-84